createdAt,value
2023-02-06T00:00:45.419Z,97299
2023-02-06T00:01:54.180Z,97301
2023-02-06T00:03:02.918Z,97301
2023-02-06T00:04:11.627Z,97306
2023-02-06T00:05:20.339Z,97307
2023-02-06T00:06:29.970Z,97306
2023-02-06T00:07:38.649Z,97306
2023-02-06T00:08:47.346Z,97299
2023-02-06T00:09:57.008Z,97301
2023-02-06T00:11:04.721Z,97302
2023-02-06T00:12:13.382Z,97298
2023-02-06T00:13:22.049Z,97302
2023-02-06T00:14:31.809Z,97306
2023-02-06T00:15:40.629Z,97305
2023-02-06T00:16:49.154Z,97311
2023-02-06T00:17:57.872Z,97306
2023-02-06T00:19:07.600Z,97311
2023-02-06T00:20:15.316Z,97309
2023-02-06T00:21:24.974Z,97312
2023-02-06T00:22:33.656Z,97306
2023-02-06T00:23:43.355Z,97310
2023-02-06T00:24:53.029Z,97306
2023-02-06T00:26:01.747Z,97307
2023-02-06T00:27:10.407Z,97312
2023-02-06T00:28:20.112Z,97309
2023-02-06T00:29:27.757Z,97311
2023-02-06T00:30:36.435Z,97309
2023-02-06T00:31:45.196Z,97310
2023-02-06T00:32:53.810Z,97319
2023-02-06T00:34:03.558Z,97324
2023-02-06T00:35:13.210Z,97329
2023-02-06T00:36:23.912Z,97325
2023-02-06T00:37:33.609Z,97330
2023-02-06T00:38:42.302Z,97325
2023-02-06T00:39:51.972Z,97325
2023-02-06T00:41:00.630Z,97327
2023-02-06T00:42:10.338Z,97321
2023-02-06T00:43:20.095Z,97323
2023-02-06T00:44:27.813Z,97326
2023-02-06T00:45:36.752Z,97324
2023-02-06T00:46:46.237Z,97324
2023-02-06T00:47:53.904Z,97317
2023-02-06T00:49:03.593Z,97319
2023-02-06T00:50:12.295Z,97322
2023-02-06T00:51:20.956Z,97320
2023-02-06T00:52:30.621Z,97320
2023-02-06T00:53:38.318Z,97315
2023-02-06T00:54:48.026Z,97313
2023-02-06T00:55:57.743Z,97311
2023-02-06T00:57:05.398Z,97318
2023-02-06T00:58:14.061Z,97318
2023-02-06T00:59:23.748Z,97318
2023-02-06T01:00:31.460Z,97321
2023-02-06T01:01:40.173Z,97322
2023-02-06T01:02:48.852Z,97324
2023-02-06T01:03:57.561Z,97322
2023-02-06T01:05:06.242Z,97320
2023-02-06T01:06:14.986Z,97320
2023-02-06T01:07:24.655Z,97318
2023-02-06T01:08:34.426Z,97325
2023-02-06T01:09:43.095Z,97330
2023-02-06T01:10:52.780Z,97332
2023-02-06T01:12:02.593Z,97331
2023-02-06T01:13:11.272Z,97332
2023-02-06T01:14:19.987Z,97337
2023-02-06T01:15:28.666Z,97339
2023-02-06T01:16:37.345Z,97339
2023-02-06T01:17:47.066Z,97337
2023-02-06T01:18:55.780Z,97333
2023-02-06T01:20:04.488Z,97331
2023-02-06T01:21:14.139Z,97336
2023-02-06T01:22:23.834Z,97341
2023-02-06T01:23:32.538Z,97342
2023-02-06T01:24:41.199Z,97343
2023-02-06T01:25:49.871Z,97341
2023-02-06T01:27:00.547Z,97335
2023-02-06T01:28:09.230Z,97339
2023-02-06T01:29:18.196Z,97335
2023-02-06T01:30:27.988Z,97337
2023-02-06T01:31:36.640Z,97335
2023-02-06T01:32:46.318Z,97332
2023-02-06T01:33:54.989Z,97333
2023-02-06T01:35:03.692Z,97333
2023-02-06T01:36:12.386Z,97328
2023-02-06T01:37:21.045Z,97328
2023-02-06T01:38:29.733Z,97325
2023-02-06T01:39:39.426Z,97321
2023-02-06T01:40:47.111Z,97327
2023-02-06T01:41:56.770Z,97327
2023-02-06T01:43:05.444Z,97331
2023-02-06T01:44:14.103Z,97337
2023-02-06T01:45:23.779Z,97335
2023-02-06T01:46:31.517Z,97335
2023-02-06T01:47:40.134Z,97336
2023-02-06T01:48:49.815Z,97335
2023-02-06T01:49:57.493Z,97327
2023-02-06T01:51:06.197Z,97328
2023-02-06T01:52:15.153Z,97324
2023-02-06T01:53:23.834Z,97327
2023-02-06T01:54:33.568Z,97327
2023-02-06T01:55:43.231Z,97329
2023-02-06T01:56:52.919Z,97327
2023-02-06T01:58:02.656Z,97330
2023-02-06T01:59:11.338Z,97331
2023-02-06T02:00:20.008Z,97329
2023-02-06T02:01:28.695Z,97323
2023-02-06T02:02:37.368Z,97321
2023-02-06T02:03:47.060Z,97321
2023-02-06T02:04:55.746Z,97318
2023-02-06T02:06:04.414Z,97319
2023-02-06T02:07:14.105Z,97317
2023-02-06T02:08:22.792Z,97319
2023-02-06T02:09:30.457Z,97322
2023-02-06T02:10:39.157Z,97319
2023-02-06T02:11:48.845Z,97313
2023-02-06T02:12:58.530Z,97317
2023-02-06T02:14:08.222Z,97312
2023-02-06T02:15:18.003Z,97311
2023-02-06T02:16:27.775Z,97311
2023-02-06T02:17:36.424Z,97309
2023-02-06T02:18:46.099Z,97311
2023-02-06T02:19:54.772Z,97312
2023-02-06T02:21:03.477Z,97310
2023-02-06T02:22:13.142Z,97312
2023-02-06T02:23:20.840Z,97309
2023-02-06T02:24:31.863Z,97310
2023-02-06T02:25:40.174Z,97315
2023-02-06T02:26:48.858Z,97315
2023-02-06T02:27:57.539Z,97316
2023-02-06T02:29:06.218Z,97320
2023-02-06T02:30:14.909Z,97316
2023-02-06T02:31:24.608Z,97318
2023-02-06T02:32:32.364Z,97315
2023-02-06T02:33:42.027Z,97318
2023-02-06T02:34:51.735Z,97323
2023-02-06T02:35:59.394Z,97321
2023-02-06T02:37:08.060Z,97320
2023-02-06T02:38:16.743Z,97319
2023-02-06T02:39:25.407Z,97314
2023-02-06T02:40:35.136Z,97312
2023-02-06T02:41:44.835Z,97303
2023-02-06T02:42:53.461Z,97305
2023-02-06T02:44:03.190Z,97301
2023-02-06T02:45:11.868Z,97300
2023-02-06T02:46:21.577Z,97300
2023-02-06T02:47:30.234Z,97299
2023-02-06T02:48:38.921Z,97303
2023-02-06T02:49:48.615Z,97302
2023-02-06T02:50:56.301Z,97298
2023-02-06T02:52:04.951Z,97299
2023-02-06T02:53:14.624Z,97300
2023-02-06T02:54:24.323Z,97301
2023-02-06T02:55:34.593Z,97298
2023-02-06T02:56:43.866Z,97296
2023-02-06T02:57:53.535Z,97297
2023-02-06T02:59:02.294Z,97294
2023-02-06T03:00:11.984Z,97294
2023-02-06T03:01:20.712Z,97288
2023-02-06T03:02:30.439Z,97292
2023-02-06T03:03:39.160Z,97291
2023-02-06T03:04:47.856Z,97293
2023-02-06T03:05:57.505Z,97293
2023-02-06T03:07:06.232Z,97297
2023-02-06T03:08:14.886Z,97296
2023-02-06T03:09:24.559Z,97300
2023-02-06T03:10:33.238Z,97296
2023-02-06T03:11:42.936Z,97303
2023-02-06T03:12:52.665Z,97301
2023-02-06T03:14:01.315Z,97297
2023-02-06T03:15:10.997Z,97301
2023-02-06T03:16:19.744Z,97306
2023-02-06T03:17:28.346Z,97301
2023-02-06T03:18:38.056Z,97300
2023-02-06T03:19:46.751Z,97303
2023-02-06T03:20:54.451Z,97308
2023-02-06T03:22:03.162Z,97306
2023-02-06T03:23:11.857Z,97311
2023-02-06T03:24:21.535Z,97307
2023-02-06T03:25:30.313Z,97303
2023-02-06T03:26:37.994Z,97300
2023-02-06T03:27:48.035Z,97298
2023-02-06T03:28:57.615Z,97293
2023-02-06T03:30:07.184Z,97299
2023-02-06T03:31:18.155Z,97301
2023-02-06T03:32:30.828Z,97303
2023-02-06T03:33:41.629Z,97302
2023-02-06T03:34:51.798Z,97306
2023-02-06T03:36:01.724Z,97306
2023-02-06T03:37:11.455Z,97307
2023-02-06T03:38:20.160Z,97304
2023-02-06T03:39:28.881Z,97314
2023-02-06T03:40:38.522Z,97315
2023-02-06T03:41:47.251Z,97312
2023-02-06T03:42:56.939Z,97307
2023-02-06T03:44:06.640Z,97309
2023-02-06T03:45:15.301Z,97313
2023-02-06T03:46:25.001Z,97317
2023-02-06T03:47:33.761Z,97324
2023-02-06T03:48:42.445Z,97327
2023-02-06T03:49:52.138Z,97326
2023-02-06T03:50:59.842Z,97332
2023-02-06T03:52:09.556Z,97330
2023-02-06T03:53:18.427Z,97328
2023-02-06T03:54:28.088Z,97332
2023-02-06T03:55:38.039Z,97336
2023-02-06T03:56:46.456Z,97337
2023-02-06T03:57:56.191Z,97334
2023-02-06T03:59:06.026Z,97331
2023-02-06T04:00:13.767Z,97331
2023-02-06T04:01:23.491Z,97336
2023-02-06T04:02:32.157Z,97342
2023-02-06T04:03:41.812Z,97341
2023-02-06T04:04:51.582Z,97348
2023-02-06T04:06:01.280Z,97343
2023-02-06T04:07:09.932Z,97343
2023-02-06T04:08:19.634Z,97342
2023-02-06T04:09:29.349Z,97344
2023-02-06T04:10:39.052Z,97343
2023-02-06T04:11:47.738Z,97341
2023-02-06T04:12:57.434Z,97336
2023-02-06T04:14:07.118Z,97339
2023-02-06T04:15:15.796Z,97342
2023-02-06T04:16:24.630Z,97338
2023-02-06T04:17:46.671Z,97340
2023-02-06T04:18:44.850Z,97344
2023-02-06T04:19:53.506Z,97338
2023-02-06T04:21:02.175Z,97335
2023-02-06T04:22:11.969Z,97333
2023-02-06T04:23:21.647Z,97328
2023-02-06T04:24:30.909Z,97328
2023-02-06T04:25:38.283Z,97320
2023-02-06T04:26:47.641Z,97318
2023-02-06T04:27:57.433Z,97327
2023-02-06T04:29:07.075Z,97323
2023-02-06T04:30:15.764Z,97315
2023-02-06T04:31:24.448Z,97314
2023-02-06T04:32:34.138Z,97306
2023-02-06T04:33:43.876Z,97309
2023-02-06T04:34:52.582Z,97305
2023-02-06T04:36:02.258Z,97309
2023-02-06T04:37:10.923Z,97311
2023-02-06T04:38:20.688Z,97304
2023-02-06T04:39:29.442Z,97304
2023-02-06T04:40:39.200Z,97298
2023-02-06T04:41:48.909Z,97294
2023-02-06T04:42:58.611Z,97294
2023-02-06T04:44:07.282Z,97294
2023-02-06T04:45:16.986Z,97297
2023-02-06T04:46:25.764Z,97296
2023-02-06T04:47:34.396Z,97292
2023-02-06T04:48:43.098Z,97289
2023-02-06T04:49:52.737Z,97287
2023-02-06T04:51:02.436Z,97285
2023-02-06T04:52:11.127Z,97285
2023-02-06T04:53:19.797Z,97290
2023-02-06T04:54:31.885Z,97291
2023-02-06T04:55:39.154Z,97289
2023-02-06T04:56:47.849Z,97286
2023-02-06T04:57:57.526Z,97284
2023-02-06T04:59:06.262Z,97288
2023-02-06T05:00:15.935Z,97293
2023-02-06T05:01:25.669Z,97294
2023-02-06T05:02:34.587Z,97301
2023-02-06T05:03:44.240Z,97305
2023-02-06T05:04:52.948Z,97311
2023-02-06T05:06:02.626Z,97311
2023-02-06T05:07:12.320Z,97317
2023-02-06T05:08:22.057Z,97319
2023-02-06T05:09:30.737Z,97316
2023-02-06T05:10:40.404Z,97316
2023-02-06T05:11:48.117Z,97311
2023-02-06T05:12:57.777Z,97311
2023-02-06T05:14:07.479Z,97310
2023-02-06T05:15:16.148Z,97305
2023-02-06T05:16:25.839Z,97305
2023-02-06T05:17:33.522Z,97304
2023-02-06T05:18:42.189Z,97305
2023-02-06T05:19:51.871Z,97303
2023-02-06T05:21:01.643Z,97306
2023-02-06T05:22:10.306Z,97306
2023-02-06T05:23:20.011Z,97308
2023-02-06T05:24:28.693Z,97305
2023-02-06T05:25:39.183Z,97308
2023-02-06T05:26:48.075Z,97308
2023-02-06T05:27:57.860Z,97307
2023-02-06T05:29:07.479Z,97302
2023-02-06T05:30:17.157Z,97296
2023-02-06T05:31:26.913Z,97296
2023-02-06T05:32:34.523Z,97292
2023-02-06T05:33:43.193Z,97298
2023-02-06T05:34:53.873Z,97293
2023-02-06T05:36:02.540Z,97283
2023-02-06T05:37:12.281Z,97282
2023-02-06T05:38:21.934Z,97274
2023-02-06T05:39:31.621Z,97272
2023-02-06T05:40:41.315Z,97273
2023-02-06T05:41:50.998Z,97277
2023-02-06T05:42:59.725Z,97279
2023-02-06T05:44:09.397Z,97274
2023-02-06T05:45:17.131Z,97281
2023-02-06T05:46:26.881Z,97273
2023-02-06T05:47:37.508Z,97274
2023-02-06T05:48:46.366Z,97278
2023-02-06T05:49:56.029Z,97274
2023-02-06T05:51:04.740Z,97270
2023-02-06T05:52:13.406Z,97270
2023-02-06T05:53:23.198Z,97272
2023-02-06T05:54:32.861Z,97269
2023-02-06T05:55:41.543Z,97269
2023-02-06T05:56:51.294Z,97271
2023-02-06T05:57:58.929Z,97269
2023-02-06T05:59:08.653Z,97269
2023-02-06T06:00:18.373Z,97268
2023-02-06T06:01:27.079Z,97271
2023-02-06T06:02:36.774Z,97271
2023-02-06T06:03:44.493Z,97270
2023-02-06T06:04:54.197Z,97268
2023-02-06T06:06:03.886Z,97273
2023-02-06T06:07:11.575Z,97272
2023-02-06T06:08:19.290Z,97272
2023-02-06T06:09:27.983Z,97273
2023-02-06T06:10:36.631Z,97262
2023-02-06T06:11:46.333Z,97262
2023-02-06T06:12:55.034Z,97267
2023-02-06T06:14:04.858Z,97265
2023-02-06T06:15:14.566Z,97268
2023-02-06T06:16:22.334Z,97260
2023-02-06T06:17:30.945Z,97264
2023-02-06T06:18:39.628Z,97264
2023-02-06T06:19:49.310Z,97266
2023-02-06T06:20:58.980Z,97265
2023-02-06T06:22:07.653Z,97270
2023-02-06T06:23:16.337Z,97266
2023-02-06T06:24:26.012Z,97262
2023-02-06T06:25:33.985Z,97270
2023-02-06T06:26:43.425Z,97269
2023-02-06T06:27:52.153Z,97277
2023-02-06T06:29:01.797Z,97278
2023-02-06T06:30:11.479Z,97284
2023-02-06T06:31:20.314Z,97282
2023-02-06T06:32:28.837Z,97281
2023-02-06T06:33:38.543Z,97276
2023-02-06T06:34:48.240Z,97281
2023-02-06T06:35:56.920Z,97279
2023-02-06T06:37:05.628Z,97281
2023-02-06T06:38:14.302Z,97281
2023-02-06T06:39:23.981Z,97277
2023-02-06T06:40:32.686Z,97273
2023-02-06T06:41:41.363Z,97270
2023-02-06T06:42:51.023Z,97270
2023-02-06T06:43:58.718Z,97274
2023-02-06T06:45:07.431Z,97275
2023-02-06T06:46:17.220Z,97273
2023-02-06T06:47:25.927Z,97281
2023-02-06T06:48:35.612Z,97275
2023-02-06T06:49:43.280Z,97278
2023-02-06T06:50:52.943Z,97281
2023-02-06T06:52:01.633Z,97284
2023-02-06T06:53:11.282Z,97288
2023-02-06T06:54:19.975Z,97290
2023-02-06T06:55:29.660Z,97290
2023-02-06T06:56:38.366Z,97287
2023-02-06T06:57:47.098Z,97288
2023-02-06T06:58:56.779Z,97278
2023-02-06T07:00:05.492Z,97279
2023-02-06T07:01:14.186Z,97277
2023-02-06T07:02:23.845Z,97278
2023-02-06T07:03:32.551Z,97278
2023-02-06T07:04:42.240Z,97274
2023-02-06T07:05:53.273Z,97277
2023-02-06T07:07:01.691Z,97282
2023-02-06T07:08:11.331Z,97284
2023-02-06T07:09:19.116Z,97285
2023-02-06T07:10:28.941Z,97284
2023-02-06T07:11:38.514Z,97284
2023-02-06T07:12:48.218Z,97286
2023-02-06T07:13:57.931Z,97287
2023-02-06T07:15:06.649Z,97284
2023-02-06T07:16:15.357Z,97288
2023-02-06T07:17:25.005Z,97284
2023-02-06T07:18:32.743Z,97285
2023-02-06T07:19:41.414Z,97285
2023-02-06T07:20:50.175Z,97283
2023-02-06T07:21:58.826Z,97287
2023-02-06T07:23:08.552Z,97291
2023-02-06T07:24:18.272Z,97284
2023-02-06T07:25:27.951Z,97289
2023-02-06T07:26:38.619Z,97284
2023-02-06T07:27:46.384Z,97283
2023-02-06T07:28:55.023Z,97278
2023-02-06T07:30:06.504Z,97279
2023-02-06T07:31:14.378Z,97283
2023-02-06T07:32:24.115Z,97282
2023-02-06T07:33:33.793Z,97284
2023-02-06T07:34:43.458Z,97284
2023-02-06T07:35:53.147Z,97282
2023-02-06T07:37:03.823Z,97286
2023-02-06T07:38:12.521Z,97281
2023-02-06T07:39:21.216Z,97283
2023-02-06T07:40:43.181Z,97286
2023-02-06T07:41:41.623Z,97284
2023-02-06T07:42:50.374Z,97286
2023-02-06T07:43:59.125Z,97287
2023-02-06T07:45:08.824Z,97286
2023-02-06T07:46:17.555Z,97282
2023-02-06T07:47:27.258Z,97280
2023-02-06T07:48:35.950Z,97284
2023-02-06T07:49:45.967Z,97283
2023-02-06T07:50:55.634Z,97291
2023-02-06T07:52:04.344Z,97290
2023-02-06T07:53:13.002Z,97292
2023-02-06T07:54:22.700Z,97293
2023-02-06T07:55:30.387Z,97297
2023-02-06T07:56:40.113Z,97294
2023-02-06T07:57:49.859Z,97291
2023-02-06T07:58:57.537Z,97289
2023-02-06T08:00:07.225Z,97295
2023-02-06T08:01:16.120Z,97295
2023-02-06T08:02:25.619Z,97294
2023-02-06T08:03:35.353Z,97300
2023-02-06T08:04:44.137Z,97306
2023-02-06T08:05:53.772Z,97305
2023-02-06T08:07:02.479Z,97309
2023-02-06T08:08:11.148Z,97311
2023-02-06T08:09:20.849Z,97310
2023-02-06T08:10:30.574Z,97314
2023-02-06T08:11:38.274Z,97314
2023-02-06T08:12:48.003Z,97314
2023-02-06T08:13:55.655Z,97311
2023-02-06T08:15:04.346Z,97309
2023-02-06T08:16:13.091Z,97313
2023-02-06T08:17:21.877Z,97313
2023-02-06T08:18:31.453Z,97314
2023-02-06T08:19:40.177Z,97317
2023-02-06T08:20:48.838Z,97315
2023-02-06T08:21:58.516Z,97321
2023-02-06T08:23:07.226Z,97320
2023-02-06T08:24:16.003Z,97323
2023-02-06T08:25:25.697Z,97323
2023-02-06T08:26:34.395Z,97329
2023-02-06T08:27:44.125Z,97335
2023-02-06T08:28:52.747Z,97327
2023-02-06T08:30:01.438Z,97326
2023-02-06T08:31:11.198Z,97332
2023-02-06T08:32:18.789Z,97329
2023-02-06T08:33:27.495Z,97330
2023-02-06T08:34:37.206Z,97326
2023-02-06T08:35:45.912Z,97331
2023-02-06T08:36:55.603Z,97329
2023-02-06T08:38:05.376Z,97328
2023-02-06T08:39:14.085Z,97324
2023-02-06T08:40:23.839Z,97328
2023-02-06T08:41:31.476Z,97334
2023-02-06T08:42:40.171Z,97335
2023-02-06T08:43:49.872Z,97336
2023-02-06T08:44:59.559Z,97335
2023-02-06T08:46:09.351Z,97340
2023-02-06T08:47:16.944Z,97335
2023-02-06T08:48:25.612Z,97336
2023-02-06T08:49:35.330Z,97330
2023-02-06T08:50:46.682Z,97333
2023-02-06T08:51:55.371Z,97332
2023-02-06T08:53:05.099Z,97331
2023-02-06T08:54:12.800Z,97334
2023-02-06T08:55:25.053Z,97332
2023-02-06T08:56:32.262Z,97328
2023-02-06T08:57:39.943Z,97336
2023-02-06T08:58:48.639Z,97331
2023-02-06T08:59:57.360Z,97331
2023-02-06T09:01:06.103Z,97330
2023-02-06T09:02:15.796Z,97331
2023-02-06T09:03:25.507Z,97330
2023-02-06T09:04:34.260Z,97332
2023-02-06T09:05:44.019Z,97333
2023-02-06T09:06:54.722Z,97329
2023-02-06T09:08:03.362Z,97330
2023-02-06T09:09:12.085Z,97331
2023-02-06T09:10:27.332Z,97337
2023-02-06T09:11:31.470Z,97335
2023-02-06T09:12:39.136Z,97337
2023-02-06T09:13:49.403Z,97339
2023-02-06T09:14:58.522Z,97339
2023-02-06T09:16:06.591Z,97339
2023-02-06T09:17:16.132Z,97336
2023-02-06T09:18:25.817Z,97330
2023-02-06T09:19:35.490Z,97340
2023-02-06T09:20:45.186Z,97328
2023-02-06T09:21:52.920Z,97333
2023-02-06T09:23:02.565Z,97329
2023-02-06T09:24:12.286Z,97340
2023-02-06T09:25:21.987Z,97339
2023-02-06T09:26:31.666Z,97339
2023-02-06T09:27:42.661Z,97339
2023-02-06T09:28:51.422Z,97334
2023-02-06T09:30:01.115Z,97337
2023-02-06T09:31:08.929Z,97337
2023-02-06T09:32:18.558Z,97337
2023-02-06T09:33:28.361Z,97332
2023-02-06T09:34:36.065Z,97332
2023-02-06T09:35:45.745Z,97336
2023-02-06T09:36:54.571Z,97338
2023-02-06T09:38:03.152Z,97331
2023-02-06T09:39:12.834Z,97336
2023-02-06T09:40:21.508Z,97335
2023-02-06T09:41:30.188Z,97329
2023-02-06T09:42:39.896Z,97327
2023-02-06T09:43:48.641Z,97332
2023-02-06T09:44:57.357Z,97332
2023-02-06T09:46:06.103Z,97335
2023-02-06T09:47:15.763Z,97337
2023-02-06T09:48:25.454Z,97339
2023-02-06T09:49:33.138Z,97329
2023-02-06T09:50:42.837Z,97331
2023-02-06T09:51:52.506Z,97323
2023-02-06T09:53:00.232Z,97329
2023-02-06T09:54:08.921Z,97320
2023-02-06T09:55:18.607Z,97325
2023-02-06T09:56:28.357Z,97316
2023-02-06T09:57:38.021Z,97323
2023-02-06T09:58:46.730Z,97323
2023-02-06T09:59:55.459Z,97326
2023-02-06T10:01:05.138Z,97328
2023-02-06T10:02:13.849Z,97329
2023-02-06T10:03:23.582Z,97330
2023-02-06T10:04:33.418Z,97328
2023-02-06T10:05:43.028Z,97322
2023-02-06T10:06:52.736Z,97317
2023-02-06T10:08:00.480Z,97313
2023-02-06T10:09:09.142Z,97320
2023-02-06T10:10:18.909Z,97320
2023-02-06T10:11:27.532Z,97316
2023-02-06T10:12:36.213Z,97313
2023-02-06T10:13:45.941Z,97314
2023-02-06T10:14:54.636Z,97311
2023-02-06T10:16:04.377Z,97310
2023-02-06T10:17:14.015Z,97306
2023-02-06T10:18:22.770Z,97306
2023-02-06T10:19:32.489Z,97302
2023-02-06T10:20:41.206Z,97304
2023-02-06T10:21:50.910Z,97303
2023-02-06T10:23:00.654Z,97304
2023-02-06T10:24:09.367Z,97304
2023-02-06T10:25:19.108Z,97301
2023-02-06T10:26:26.978Z,97298
2023-02-06T10:27:36.524Z,97294
2023-02-06T10:28:46.285Z,97290
2023-02-06T10:29:55.967Z,97287
2023-02-06T10:31:07.106Z,97287
2023-02-06T10:32:15.718Z,97287
2023-02-06T10:33:26.043Z,97283
2023-02-06T10:34:35.061Z,97280
2023-02-06T10:35:43.798Z,97280
2023-02-06T10:36:53.476Z,97282
2023-02-06T10:38:03.162Z,97275
2023-02-06T10:39:10.811Z,97274
2023-02-06T10:40:20.520Z,97265
2023-02-06T10:41:29.219Z,97264
2023-02-06T10:42:38.915Z,97262
2023-02-06T10:43:48.625Z,97260
2023-02-06T10:45:01.380Z,97256
2023-02-06T10:46:06.978Z,97252
2023-02-06T10:47:16.661Z,97252
2023-02-06T10:48:26.391Z,97249
2023-02-06T10:49:35.063Z,97244
2023-02-06T10:50:43.743Z,97242
2023-02-06T10:51:52.447Z,97240
2023-02-06T10:53:01.152Z,97239
2023-02-06T10:54:10.857Z,97235
2023-02-06T10:55:19.547Z,97239
2023-02-06T10:56:28.229Z,97236
2023-02-06T10:57:36.927Z,97234
2023-02-06T10:58:46.573Z,97234
2023-02-06T10:59:56.312Z,97235
2023-02-06T11:01:11.310Z,97233
2023-02-06T11:02:15.664Z,97231
2023-02-06T11:03:25.349Z,97228
2023-02-06T11:04:34.019Z,97222
2023-02-06T11:05:41.742Z,97222
2023-02-06T11:06:50.417Z,97218
2023-02-06T11:07:59.099Z,97214
2023-02-06T11:09:08.789Z,97216
2023-02-06T11:10:18.475Z,97215
2023-02-06T11:11:27.192Z,97215
2023-02-06T11:12:36.860Z,97212
2023-02-06T11:13:45.598Z,97216
2023-02-06T11:14:55.253Z,97215
2023-02-06T11:16:03.018Z,97215
2023-02-06T11:17:11.658Z,97213
2023-02-06T11:18:21.389Z,97213
2023-02-06T11:19:29.110Z,97209
2023-02-06T11:20:37.083Z,97207
2023-02-06T11:21:46.439Z,97201
2023-02-06T11:22:54.345Z,97201
2023-02-06T11:24:05.021Z,97200
2023-02-06T11:25:14.703Z,97189
2023-02-06T11:26:23.387Z,97189
2023-02-06T11:27:34.077Z,97186
2023-02-06T11:28:42.813Z,97184
2023-02-06T11:29:52.517Z,97191
2023-02-06T11:31:02.154Z,97185
2023-02-06T11:32:10.850Z,97186
2023-02-06T11:33:19.526Z,97182
2023-02-06T11:34:28.407Z,97183
2023-02-06T11:35:38.618Z,97178
2023-02-06T11:36:47.837Z,97176
2023-02-06T11:37:56.509Z,97176
2023-02-06T11:39:06.195Z,97177
2023-02-06T11:40:14.890Z,97176
2023-02-06T11:41:22.559Z,97175
2023-02-06T11:42:31.297Z,97171
2023-02-06T11:43:40.001Z,97169
2023-02-06T11:44:47.682Z,97167
2023-02-06T11:45:57.572Z,97167
2023-02-06T11:47:07.085Z,97166
2023-02-06T11:48:15.812Z,97169
2023-02-06T11:49:25.546Z,97172
2023-02-06T11:50:34.606Z,97167
2023-02-06T11:51:43.992Z,97169
2023-02-06T11:52:52.657Z,97173
2023-02-06T11:54:01.376Z,97174
2023-02-06T11:55:11.062Z,97163
2023-02-06T11:56:19.750Z,97161
2023-02-06T11:57:28.481Z,97160
2023-02-06T11:58:38.179Z,97156
2023-02-06T11:59:46.881Z,97155
2023-02-06T12:00:56.576Z,97159
2023-02-06T12:02:07.440Z,97159
2023-02-06T12:03:17.009Z,97152
2023-02-06T12:04:26.697Z,97152
2023-02-06T12:05:36.689Z,97148
2023-02-06T12:06:45.069Z,97148
2023-02-06T12:07:54.788Z,97140
2023-02-06T12:09:03.533Z,97145
2023-02-06T12:10:13.214Z,97145
2023-02-06T12:11:21.910Z,97144
2023-02-06T12:12:30.625Z,97139
2023-02-06T12:13:40.305Z,97141
2023-02-06T12:14:48.026Z,97144
2023-02-06T12:15:56.715Z,97145
2023-02-06T12:17:06.397Z,97146
2023-02-06T12:18:15.119Z,97146
2023-02-06T12:19:24.749Z,97146
2023-02-06T12:20:33.450Z,97149
2023-02-06T12:21:43.206Z,97150
2023-02-06T12:22:52.815Z,97157
2023-02-06T12:24:00.486Z,97158
2023-02-06T12:25:09.204Z,97154
2023-02-06T12:26:18.924Z,97154
2023-02-06T12:27:26.616Z,97150
2023-02-06T12:28:35.358Z,97150
2023-02-06T12:29:44.052Z,97155
2023-02-06T12:30:53.792Z,97153
2023-02-06T12:32:03.517Z,97154
2023-02-06T12:33:11.122Z,97149
2023-02-06T12:34:19.853Z,97145
2023-02-06T12:35:29.529Z,97147
2023-02-06T12:36:37.231Z,97145
2023-02-06T12:37:47.100Z,97142
2023-02-06T12:38:56.821Z,97140
2023-02-06T12:40:06.497Z,97134
2023-02-06T12:41:16.204Z,97124
2023-02-06T12:42:24.904Z,97124
2023-02-06T12:43:34.607Z,97111
2023-02-06T12:44:44.332Z,97104
2023-02-06T12:45:52.040Z,97109
2023-02-06T12:47:00.800Z,97106
2023-02-06T12:48:12.188Z,97099
2023-02-06T12:49:20.209Z,97102
2023-02-06T12:50:28.919Z,97102
2023-02-06T12:51:38.599Z,97096
2023-02-06T12:52:47.281Z,97095
2023-02-06T12:53:56.987Z,97090
2023-02-06T12:55:06.700Z,97095
2023-02-06T12:56:16.400Z,97088
2023-02-06T12:57:26.102Z,97086
2023-02-06T12:58:35.788Z,97087
2023-02-06T12:59:56.959Z,97083
2023-02-06T13:00:56.147Z,97082
2023-02-06T13:02:05.967Z,97086
2023-02-06T13:03:15.563Z,97090
2023-02-06T13:04:24.261Z,97090
2023-02-06T13:05:33.063Z,97090
2023-02-06T13:06:42.655Z,97086
2023-02-06T13:07:52.326Z,97087
2023-02-06T13:09:01.038Z,97088
2023-02-06T13:10:09.783Z,97092
2023-02-06T13:11:19.445Z,97087
2023-02-06T13:12:28.160Z,97093
2023-02-06T13:13:37.911Z,97085
2023-02-06T13:14:46.603Z,97086
2023-02-06T13:15:56.327Z,97089
2023-02-06T13:17:03.987Z,97093
2023-02-06T13:18:11.668Z,97092
2023-02-06T13:19:21.513Z,97094
2023-02-06T13:20:31.852Z,97101
2023-02-06T13:21:39.831Z,97105
2023-02-06T13:22:49.545Z,97104
2023-02-06T13:23:58.184Z,97110
2023-02-06T13:25:07.919Z,97114
2023-02-06T13:26:16.605Z,97112
2023-02-06T13:27:26.300Z,97119
2023-02-06T13:28:36.001Z,97110
2023-02-06T13:29:44.729Z,97110
2023-02-06T13:30:54.498Z,97114
2023-02-06T13:32:04.091Z,97121
2023-02-06T13:33:13.807Z,97119
2023-02-06T13:34:23.486Z,97122
2023-02-06T13:35:31.285Z,97119
2023-02-06T13:36:40.026Z,97118
2023-02-06T13:37:49.619Z,97117
2023-02-06T13:38:59.274Z,97117
2023-02-06T13:40:07.998Z,97122
2023-02-06T13:41:17.989Z,97121
2023-02-06T13:42:27.636Z,97125
2023-02-06T13:43:37.335Z,97131
2023-02-06T13:44:46.035Z,97126
2023-02-06T13:45:55.856Z,97120
2023-02-06T13:47:05.545Z,97128
2023-02-06T13:48:13.240Z,97120
2023-02-06T13:49:22.932Z,97113
2023-02-06T13:50:32.659Z,97114
2023-02-06T13:51:41.355Z,97113
2023-02-06T13:52:51.037Z,97112
2023-02-06T13:53:58.747Z,97112
2023-02-06T13:55:08.476Z,97116
2023-02-06T13:56:18.165Z,97119
2023-02-06T13:57:26.850Z,97118
2023-02-06T13:58:35.667Z,97123
2023-02-06T13:59:44.333Z,97119
2023-02-06T14:00:53.081Z,97115
2023-02-06T14:02:02.834Z,97116
2023-02-06T14:03:10.475Z,97111
2023-02-06T14:04:19.178Z,97110
2023-02-06T14:05:28.894Z,97112
2023-02-06T14:06:37.578Z,97112
2023-02-06T14:07:46.257Z,97105
2023-02-06T14:08:54.915Z,97107
2023-02-06T14:10:03.664Z,97108
2023-02-06T14:11:13.344Z,97110
2023-02-06T14:12:23.016Z,97109
2023-02-06T14:13:31.723Z,97106
2023-02-06T14:14:41.410Z,97099
2023-02-06T14:15:50.171Z,97093
2023-02-06T14:16:58.851Z,97089
2023-02-06T14:18:07.555Z,97091
2023-02-06T14:19:17.234Z,97096
2023-02-06T14:20:26.934Z,97098
2023-02-06T14:21:34.746Z,97103
2023-02-06T14:22:43.433Z,97106
2023-02-06T14:23:52.143Z,97104
2023-02-06T14:25:00.888Z,97111
2023-02-06T14:26:10.584Z,97104
2023-02-06T14:27:19.250Z,97101
2023-02-06T14:28:27.916Z,97103
2023-02-06T14:29:37.613Z,97103
2023-02-06T14:30:46.322Z,97101
2023-02-06T14:31:56.053Z,97096
2023-02-06T14:33:05.712Z,97099
2023-02-06T14:34:13.366Z,97099
2023-02-06T14:35:22.033Z,97091
2023-02-06T14:36:31.721Z,97089
2023-02-06T14:37:41.411Z,97088
2023-02-06T14:38:51.207Z,97088
2023-02-06T14:40:04.351Z,97087
2023-02-06T14:41:08.544Z,97090
2023-02-06T14:42:18.317Z,97087
2023-02-06T14:43:26.978Z,97083
2023-02-06T14:44:35.907Z,97080
2023-02-06T14:45:49.639Z,97079
2023-02-06T14:46:56.314Z,97078
2023-02-06T14:48:05.950Z,97079
2023-02-06T14:49:15.672Z,97081
2023-02-06T14:50:24.383Z,97079